createdAt,value
2023-04-16T00:02:02.555Z,10.52
2023-04-16T00:07:04.155Z,10.50
2023-04-16T00:12:06.591Z,10.56
2023-04-16T00:17:08.040Z,10.58
2023-04-16T00:22:09.575Z,10.48
2023-04-16T00:27:11.168Z,10.51
2023-04-16T00:32:12.553Z,10.52
2023-04-16T00:37:14.293Z,10.52
2023-04-16T00:42:15.648Z,10.50
2023-04-16T00:47:17.202Z,10.55
2023-04-16T00:52:18.514Z,10.59
2023-04-16T00:57:21.029Z,10.45
2023-04-16T01:02:22.876Z,10.47
2023-04-16T01:07:24.388Z,10.49
2023-04-16T01:12:25.829Z,10.30
2023-04-16T01:17:27.196Z,10.23
2023-04-16T01:22:29.204Z,10.34
2023-04-16T01:27:31.177Z,10.27
2023-04-16T01:32:32.640Z,10.29
2023-04-16T01:37:34.032Z,10.20
2023-04-16T01:42:36.017Z,10.09
2023-04-16T01:47:37.573Z,10.20
2023-04-16T01:52:38.911Z,10.21
2023-04-16T01:57:40.426Z,10.15
2023-04-16T02:02:42.590Z,10.13
2023-04-16T02:07:44.017Z,10.01
2023-04-16T02:12:45.412Z,10.16
2023-04-16T02:17:48.529Z,10.20
2023-04-16T02:22:50.010Z,10.26
2023-04-16T02:27:51.412Z,10.36
2023-04-16T02:32:52.864Z,10.35
2023-04-16T02:37:54.206Z,10.33
2023-04-16T02:42:55.745Z,10.38
2023-04-16T02:47:57.183Z,10.45
2023-04-16T02:52:58.591Z,10.34
2023-04-16T02:57:59.950Z,10.39
2023-04-16T03:03:01.675Z,10.48
2023-04-16T03:08:06.873Z,10.51
2023-04-16T03:13:08.144Z,10.45
2023-04-16T03:18:09.460Z,10.36
2023-04-16T03:23:10.748Z,10.21
2023-04-16T03:28:12.089Z,10.23
2023-04-16T03:33:13.457Z,10.23
2023-04-16T03:38:14.790Z,10.25
2023-04-16T03:43:16.114Z,10.18
2023-04-16T03:48:17.814Z,10.09
2023-04-16T03:53:19.649Z,10.06
2023-04-16T03:58:21.470Z,9.81
2023-04-16T04:03:23.057Z,9.68
2023-04-16T04:08:24.626Z,9.63
2023-04-16T04:13:25.916Z,9.61
2023-04-16T04:18:27.696Z,9.61
2023-04-16T04:23:28.977Z,9.65
2023-04-16T04:28:30.644Z,9.71
2023-04-16T04:33:32.249Z,9.79
2023-04-16T04:38:33.594Z,9.89
2023-04-16T04:43:35.038Z,9.86
2023-04-16T04:48:36.390Z,9.86
2023-04-16T04:53:37.923Z,9.94
2023-04-16T04:58:39.225Z,10.00
2023-04-16T05:03:40.754Z,9.96
2023-04-16T05:08:42.160Z,10.14
2023-04-16T05:13:43.512Z,10.00
2023-04-16T05:18:44.808Z,10.07
2023-04-16T05:23:46.089Z,10.17
2023-04-16T05:28:47.392Z,10.03
2023-04-16T05:33:48.794Z,10.11
2023-04-16T05:38:50.107Z,10.09
2023-04-16T05:43:51.451Z,10.09
2023-04-16T05:48:52.767Z,10.11
2023-04-16T05:53:54.088Z,10.23
2023-04-16T05:58:55.438Z,10.33
2023-04-16T06:03:57.025Z,10.30
2023-04-16T06:08:58.476Z,10.23
2023-04-16T06:13:59.792Z,10.32
2023-04-16T06:19:01.274Z,10.19
2023-04-16T06:24:02.642Z,10.15
2023-04-16T06:29:04.061Z,10.16
2023-04-16T06:34:05.660Z,10.31
2023-04-16T06:39:07.042Z,10.21
2023-04-16T06:44:08.476Z,10.19
2023-04-16T06:49:09.987Z,10.31
2023-04-16T06:54:11.503Z,10.41
2023-04-16T06:59:12.846Z,10.32
2023-04-16T07:04:14.559Z,10.43
2023-04-16T07:09:17.815Z,10.47
2023-04-16T07:14:19.176Z,10.45
2023-04-16T07:19:21.383Z,10.34
2023-04-16T07:24:22.716Z,10.47
2023-04-16T07:29:24.095Z,10.38
2023-04-16T07:34:25.468Z,10.25
2023-04-16T07:39:26.778Z,10.23
2023-04-16T07:44:28.147Z,10.43
2023-04-16T07:49:29.551Z,10.51
2023-04-16T07:54:31.055Z,10.64
2023-04-16T07:59:32.434Z,10.51
2023-04-16T08:04:33.943Z,10.55
2023-04-16T08:09:36.077Z,10.72
2023-04-16T08:14:37.425Z,10.79
2023-04-16T08:19:38.734Z,10.79
2023-04-16T08:24:40.314Z,10.75
2023-04-16T08:29:41.592Z,10.92
2023-04-16T08:34:43.040Z,10.90
2023-04-16T08:39:44.312Z,11.00
2023-04-16T08:44:49.479Z,11.12
2023-04-16T08:49:56.307Z,11.29
2023-04-16T08:55:06.937Z,11.33
2023-04-16T09:00:10.262Z,11.24
2023-04-16T09:05:17.119Z,11.33
2023-04-16T09:10:19.837Z,11.38
2023-04-16T09:15:22.052Z,11.51
2023-04-16T09:20:23.440Z,11.38
2023-04-16T09:25:25.151Z,11.36
2023-04-16T09:30:27.713Z,11.51
2023-04-16T09:35:45.266Z,11.63
2023-04-16T09:40:49.538Z,11.68
2023-04-16T09:45:55.342Z,11.64
2023-04-16T09:50:57.496Z,11.70
2023-04-16T09:56:01.158Z,11.74
2023-04-16T10:01:05.093Z,11.89
2023-04-16T10:06:19.525Z,11.90
2023-04-16T10:11:21.619Z,11.84
2023-04-16T10:16:23.768Z,11.74
2023-04-16T10:21:26.366Z,11.75
2023-04-16T10:26:29.993Z,11.80
2023-04-16T10:31:31.637Z,11.89
2023-04-16T10:36:37.075Z,11.80
2023-04-16T10:41:38.784Z,11.91
2023-04-16T10:46:42.548Z,11.95
2023-04-16T10:51:53.209Z,11.90
2023-04-16T10:56:58.633Z,11.83
2023-04-16T11:02:02.022Z,11.80
2023-04-16T11:07:16.967Z,11.91
2023-04-16T11:12:27.586Z,11.90
2023-04-16T11:17:32.675Z,11.93
2023-04-16T11:22:36.639Z,11.92
2023-04-16T11:27:38.225Z,12.02
2023-04-16T11:32:40.114Z,11.93
2023-04-16T11:37:41.964Z,11.97
2023-04-16T11:42:44.203Z,12.12
2023-04-16T11:47:51.779Z,12.21
2023-04-16T11:52:55.550Z,12.28
2023-04-16T11:57:57.484Z,12.34
2023-04-16T12:02:59.425Z,12.38
2023-04-16T12:08:03.226Z,12.41
2023-04-16T12:13:11.944Z,12.44
2023-04-16T12:18:14.146Z,12.52
2023-04-16T12:23:30.272Z,12.53
2023-04-16T12:28:38.181Z,12.70
2023-04-16T12:33:39.535Z,12.81
2023-04-16T12:38:40.856Z,12.87
2023-04-16T12:43:42.246Z,12.92
2023-04-16T12:48:43.982Z,13.04
2023-04-16T12:53:45.290Z,13.07
2023-04-16T12:58:46.729Z,13.05
2023-04-16T13:03:48.481Z,13.14
2023-04-16T13:08:49.946Z,13.13
2023-04-16T13:13:51.388Z,13.23
2023-04-16T13:18:53.270Z,13.24
2023-04-16T13:23:54.863Z,13.20
2023-04-16T13:28:56.267Z,13.37
2023-04-16T13:33:57.876Z,13.35
2023-04-16T13:39:00.430Z,13.40
2023-04-16T13:44:01.908Z,13.47
2023-04-16T13:49:03.899Z,13.47
2023-04-16T13:54:05.432Z,13.63
2023-04-16T13:59:07.093Z,13.71
2023-04-16T14:04:08.589Z,13.63
2023-04-16T14:09:10.894Z,13.49
2023-04-16T14:14:12.733Z,13.62
2023-04-16T14:19:14.068Z,13.68
2023-04-16T14:24:15.451Z,13.56
2023-04-16T14:29:16.948Z,13.50
2023-04-16T14:34:18.306Z,13.23
2023-04-16T14:39:21.955Z,13.37
2023-04-16T14:44:23.580Z,13.39
2023-04-16T14:49:25.172Z,13.50
2023-04-16T14:54:26.659Z,13.60
2023-04-16T14:59:28.221Z,13.58
2023-04-16T15:04:29.832Z,13.56
2023-04-16T15:09:32.184Z,13.52
2023-04-16T15:14:33.517Z,13.56
2023-04-16T15:19:34.970Z,13.60
2023-04-16T15:24:36.414Z,13.64
2023-04-16T15:29:37.733Z,13.64
2023-04-16T15:34:39.097Z,13.51
2023-04-16T15:39:40.690Z,13.48
2023-04-16T15:44:42.097Z,13.47
2023-04-16T15:49:43.516Z,13.44
2023-04-16T15:54:44.835Z,13.40
2023-04-16T16:00:03.164Z,13.40
2023-04-16T16:05:13.245Z,13.44
2023-04-16T16:10:14.603Z,13.48
2023-04-16T16:15:16.224Z,13.46
2023-04-16T16:20:17.981Z,13.50
2023-04-16T16:25:20.172Z,13.49
2023-04-16T16:30:21.586Z,13.35
2023-04-16T16:35:23.374Z,13.29
2023-04-16T16:40:25.152Z,13.38
2023-04-16T16:45:27.072Z,13.39
2023-04-16T16:50:28.629Z,13.35
2023-04-16T16:55:29.953Z,13.22
2023-04-16T17:00:31.780Z,13.22
2023-04-16T17:05:33.139Z,13.19
2023-04-16T17:10:35.795Z,13.17
2023-04-16T17:15:37.186Z,13.14
2023-04-16T17:20:38.580Z,13.11
2023-04-16T17:25:40.244Z,13.12
2023-04-16T17:30:42.169Z,13.06
2023-04-16T17:35:43.684Z,12.96
2023-04-16T17:40:45.255Z,12.91
2023-04-16T17:45:46.662Z,12.82
2023-04-16T17:50:48.548Z,12.79
2023-04-16T17:55:51.598Z,12.75
2023-04-16T18:00:53.121Z,12.71
2023-04-16T18:05:54.496Z,12.70
2023-04-16T18:10:56.755Z,12.66
2023-04-16T18:15:58.230Z,12.63
2023-04-16T18:20:59.607Z,12.62
2023-04-16T18:26:01.201Z,12.62
2023-04-16T18:31:05.509Z,12.59
2023-04-16T18:36:07.264Z,12.52
2023-04-16T18:41:22.342Z,12.53
2023-04-16T18:46:24.128Z,12.48
2023-04-16T18:51:26.997Z,12.46
2023-04-16T18:56:29.742Z,12.38
2023-04-16T19:01:31.355Z,12.35
2023-04-16T19:06:33.015Z,12.31
2023-04-16T19:11:34.301Z,12.26
2023-04-16T19:16:35.766Z,12.25
2023-04-16T19:21:37.193Z,12.18
2023-04-16T19:26:38.546Z,12.14
2023-04-16T19:31:40.011Z,12.13
2023-04-16T19:36:42.247Z,12.12
2023-04-16T19:41:43.682Z,12.03
2023-04-16T19:46:45.429Z,12.06
2023-04-16T19:51:46.800Z,12.05
2023-04-16T19:56:51.483Z,11.93
2023-04-16T20:01:52.929Z,11.95
2023-04-16T20:06:54.432Z,11.92
2023-04-16T20:11:56.800Z,11.87
2023-04-16T20:16:58.144Z,11.87
2023-04-16T20:21:59.611Z,11.83
2023-04-16T20:27:01.688Z,11.83
2023-04-16T20:32:03.139Z,11.74
2023-04-16T20:37:04.949Z,11.79
2023-04-16T20:42:10.048Z,11.75
2023-04-16T20:47:13.041Z,11.75
2023-04-16T20:52:14.715Z,11.69
2023-04-16T20:57:16.264Z,11.65
2023-04-16T21:02:18.748Z,11.60
2023-04-16T21:07:20.452Z,11.58
2023-04-16T21:12:21.899Z,11.60
2023-04-16T21:17:23.278Z,11.64
2023-04-16T21:22:25.271Z,11.61
2023-04-16T21:27:27.123Z,11.62
2023-04-16T21:32:28.582Z,11.62
2023-04-16T21:37:30.036Z,11.59
2023-04-16T21:42:39.800Z,11.61
2023-04-16T21:47:41.236Z,11.62
2023-04-16T21:52:46.212Z,11.61
2023-04-16T21:57:48.000Z,11.50
2023-04-16T22:02:49.520Z,11.55
2023-04-16T22:07:52.354Z,11.51
2023-04-16T22:12:54.917Z,11.52
2023-04-16T22:17:56.349Z,11.48
2023-04-16T22:22:58.581Z,11.43
2023-04-16T22:28:01.306Z,11.40
2023-04-16T22:33:03.796Z,11.44
2023-04-16T22:38:05.412Z,11.40
2023-04-16T22:43:06.739Z,11.39
2023-04-16T22:48:08.500Z,11.32
2023-04-16T22:53:09.853Z,11.34
2023-04-16T22:58:11.270Z,11.37
2023-04-16T23:03:12.651Z,11.36
2023-04-16T23:08:14.031Z,11.41
2023-04-16T23:13:15.743Z,11.34
2023-04-16T23:18:17.141Z,11.39
2023-04-16T23:23:18.607Z,11.32
2023-04-16T23:28:20.586Z,11.31
2023-04-16T23:33:22.073Z,11.30
2023-04-16T23:38:23.576Z,11.29
2023-04-16T23:43:25.006Z,11.22
2023-04-16T23:48:26.753Z,11.34
2023-04-16T23:53:28.188Z,11.33
2023-04-16T23:58:29.538Z,11.27
